createdAt,value
2018-09-26T00:01:12.735Z,6.90
2018-09-26T00:03:52.082Z,6.80
2018-09-26T00:06:23.022Z,6.80
2018-09-26T00:08:54.197Z,6.80
2018-09-26T00:11:25.243Z,6.70
2018-09-26T00:13:56.520Z,6.70
2018-09-26T00:16:27.257Z,6.70
2018-09-26T00:18:58.264Z,6.70
2018-09-26T00:21:29.062Z,6.70
2018-09-26T00:24:00.385Z,6.70
2018-09-26T00:26:31.826Z,6.60
2018-09-26T00:29:02.710Z,6.60
2018-09-26T00:31:34.191Z,6.60
2018-09-26T00:34:05.144Z,6.50
2018-09-26T00:36:36.142Z,6.40
2018-09-26T00:39:08.539Z,6.40
2018-09-26T00:41:39.904Z,6.40
2018-09-26T00:44:11.012Z,6.40
2018-09-26T00:46:42.707Z,6.50
2018-09-26T00:49:13.980Z,6.50
2018-09-26T00:51:45.106Z,6.50
2018-09-26T00:54:16.505Z,6.30
2018-09-26T00:56:47.408Z,6.30
2018-09-26T00:59:18.262Z,6.20
2018-09-26T01:01:49.469Z,6.20
2018-09-26T01:04:20.253Z,6.30
2018-09-26T01:06:51.347Z,6.30
2018-09-26T01:09:22.342Z,6.40
2018-09-26T01:11:52.991Z,6.40
2018-09-26T01:14:23.742Z,6.20
2018-09-26T01:16:54.743Z,6.20
2018-09-26T01:19:25.066Z,6.20
2018-09-26T01:21:56.622Z,6.10
2018-09-26T01:24:26.908Z,6.10
2018-09-26T01:26:58.513Z,6.10
2018-09-26T01:29:30.425Z,6.20
2018-09-26T01:32:02.071Z,6.10
2018-09-26T01:34:32.868Z,6.10
2018-09-26T01:37:03.588Z,6.00
2018-09-26T01:39:35.278Z,6.10
2018-09-26T01:42:06.256Z,6.00
2018-09-26T01:44:37.170Z,6.10
2018-09-26T01:47:08.625Z,6.10
2018-09-26T01:49:40.066Z,6.00
2018-09-26T01:52:11.820Z,6.10
2018-09-26T01:54:42.857Z,6.00
2018-09-26T01:57:15.395Z,6.00
2018-09-26T01:59:46.786Z,5.90
2018-09-26T02:02:18.187Z,5.90
2018-09-26T02:04:49.786Z,5.90
2018-09-26T02:07:20.364Z,5.80
2018-09-26T02:09:51.185Z,5.80
2018-09-26T02:12:21.861Z,5.70
2018-09-26T02:14:52.699Z,5.70
2018-09-26T02:17:24.106Z,5.70
2018-09-26T02:19:54.918Z,5.60
2018-09-26T02:22:26.245Z,5.60
2018-09-26T02:24:57.594Z,5.60
2018-09-26T02:27:29.083Z,5.50
2018-09-26T02:30:00.146Z,5.50
2018-09-26T02:32:31.189Z,5.50
2018-09-26T02:35:02.347Z,5.40
2018-09-26T02:37:33.814Z,5.40
2018-09-26T02:40:04.708Z,5.40
2018-09-26T02:42:35.502Z,5.40
2018-09-26T02:45:06.155Z,5.40
2018-09-26T02:47:36.943Z,5.40
2018-09-26T02:50:08.393Z,5.30
2018-09-26T02:52:40.216Z,5.40
2018-09-26T02:55:12.961Z,5.40
2018-09-26T02:57:43.336Z,5.40
2018-09-26T03:00:14.068Z,5.30
2018-09-26T03:02:44.214Z,5.30
2018-09-26T03:05:14.945Z,5.20
2018-09-26T03:07:45.904Z,5.30
2018-09-26T03:10:17.103Z,5.30
2018-09-26T03:12:48.578Z,5.20
2018-09-26T03:15:19.706Z,5.30
2018-09-26T03:17:51.198Z,5.30
2018-09-26T03:20:22.945Z,5.40
2018-09-26T03:22:54.200Z,5.40
2018-09-26T03:25:25.388Z,5.30
2018-09-26T03:27:56.458Z,5.30
2018-09-26T03:30:27.559Z,5.40
2018-09-26T03:32:59.073Z,5.50
2018-09-26T03:35:29.945Z,5.40
2018-09-26T03:38:01.271Z,5.50
2018-09-26T03:40:32.786Z,5.50
2018-09-26T03:43:04.329Z,5.50
2018-09-26T03:45:35.179Z,5.40
2018-09-26T03:48:06.240Z,5.30
2018-09-26T03:50:37.166Z,5.30
2018-09-26T03:53:08.282Z,5.30
2018-09-26T03:55:39.274Z,5.20
2018-09-26T03:58:09.822Z,5.20
2018-09-26T04:00:41.241Z,5.20
2018-09-26T04:03:11.904Z,5.20
2018-09-26T04:05:42.254Z,5.20
2018-09-26T04:08:14.023Z,5.10
2018-09-26T04:10:44.710Z,5.10
2018-09-26T04:13:15.063Z,5.00
2018-09-26T04:15:49.770Z,5.00
2018-09-26T04:18:20.943Z,5.00
2018-09-26T04:20:51.313Z,4.90
2018-09-26T04:23:21.946Z,4.90
2018-09-26T04:25:52.669Z,4.90
2018-09-26T04:28:23.647Z,4.80
2018-09-26T04:30:54.817Z,4.80
2018-09-26T04:33:25.923Z,4.90
2018-09-26T04:35:57.388Z,4.90
2018-09-26T04:38:29.106Z,4.90
2018-09-26T04:40:59.855Z,4.90
2018-09-26T04:43:31.661Z,4.90
2018-09-26T04:46:03.558Z,4.90
2018-09-26T04:48:35.176Z,4.90
2018-09-26T04:51:05.596Z,4.90
2018-09-26T04:53:37.296Z,4.90
2018-09-26T04:56:08.387Z,4.90
2018-09-26T04:58:40.119Z,4.90
2018-09-26T05:01:11.206Z,4.90
2018-09-26T05:03:42.425Z,4.90
2018-09-26T05:06:13.672Z,4.90
2018-09-26T05:08:44.837Z,5.00
2018-09-26T05:11:16.627Z,4.90
2018-09-26T05:13:47.580Z,5.00
2018-09-26T05:16:18.570Z,5.10
2018-09-26T05:18:49.102Z,5.20
2018-09-26T05:21:23.300Z,5.20
2018-09-26T05:23:57.200Z,5.20
2018-09-26T05:26:27.838Z,5.40
2018-09-26T05:28:59.476Z,5.50
2018-09-26T05:31:30.301Z,5.50
2018-09-26T05:34:01.497Z,5.60
2018-09-26T05:36:33.043Z,5.60
2018-09-26T05:39:04.219Z,5.60
2018-09-26T05:41:35.783Z,5.70
2018-09-26T05:44:08.216Z,5.70
2018-09-26T05:46:38.904Z,5.70
2018-09-26T05:49:10.898Z,5.70
2018-09-26T05:51:41.629Z,5.70
2018-09-26T05:54:16.522Z,5.70
2018-09-26T05:56:47.028Z,5.80
2018-09-26T05:59:17.960Z,5.80
2018-09-26T06:01:48.783Z,5.90
2018-09-26T06:04:19.860Z,5.90
2018-09-26T06:06:50.866Z,5.90
2018-09-26T06:09:21.837Z,6.00
2018-09-26T06:11:53.033Z,6.10
2018-09-26T06:14:24.008Z,6.10
2018-09-26T06:16:55.009Z,6.20
2018-09-26T06:19:25.749Z,6.30
2018-09-26T06:21:56.583Z,6.50
2018-09-26T06:24:27.428Z,6.60
2018-09-26T06:26:57.994Z,6.90
2018-09-26T06:29:28.671Z,7.10
2018-09-26T06:32:00.863Z,7.50
2018-09-26T06:34:32.309Z,7.90
2018-09-26T06:37:03.351Z,8.20
2018-09-26T06:39:34.198Z,8.60
2018-09-26T06:42:05.285Z,8.90
2018-09-26T06:44:37.481Z,9.10
2018-09-26T06:47:09.830Z,9.50
2018-09-26T06:49:40.835Z,9.90
2018-09-26T06:52:11.392Z,10.60
2018-09-26T06:54:42.611Z,11.60
2018-09-26T06:57:14.004Z,12.80
2018-09-26T06:59:44.770Z,13.90
2018-09-26T07:02:16.229Z,14.90
2018-09-26T07:04:47.828Z,16.00
2018-09-26T07:07:18.504Z,17.30
2018-09-26T07:09:49.749Z,18.40
2018-09-26T07:12:20.511Z,19.00
2018-09-26T07:14:51.636Z,19.60
2018-09-26T07:17:23.109Z,20.00
2018-09-26T07:19:54.244Z,20.20
2018-09-26T07:22:25.169Z,20.10
2018-09-26T07:24:57.859Z,20.20
2018-09-26T07:27:28.308Z,20.40
2018-09-26T07:29:59.107Z,20.20
2018-09-26T07:32:29.801Z,19.80
2018-09-26T07:35:00.203Z,19.60
2018-09-26T07:37:31.009Z,19.60
2018-09-26T07:40:01.137Z,19.60
2018-09-26T07:42:31.599Z,19.70
2018-09-26T07:45:02.319Z,19.90
2018-09-26T07:47:33.067Z,20.30
2018-09-26T07:50:04.517Z,19.90
2018-09-26T07:52:34.953Z,20.10
2018-09-26T07:55:05.319Z,20.70
2018-09-26T07:57:36.066Z,21.50
2018-09-26T08:00:08.657Z,21.20
2018-09-26T08:02:39.805Z,21.40
2018-09-26T08:05:10.593Z,22.30
2018-09-26T08:07:41.266Z,22.50
2018-09-26T08:10:12.116Z,22.00
2018-09-26T08:12:43.318Z,22.10
2018-09-26T08:15:14.601Z,22.50
2018-09-26T08:17:45.699Z,23.00
2018-09-26T08:20:16.139Z,22.90
2018-09-26T08:22:46.135Z,22.70
2018-09-26T08:25:16.786Z,21.80
2018-09-26T08:27:48.184Z,21.30
2018-09-26T08:30:19.164Z,21.50
2018-09-26T08:32:50.823Z,20.90
2018-09-26T08:35:20.908Z,21.20
2018-09-26T08:37:51.552Z,21.20
2018-09-26T08:40:22.429Z,21.30
2018-09-26T08:42:53.142Z,21.00
2018-09-26T08:45:23.382Z,19.80
2018-09-26T08:47:53.817Z,18.90
2018-09-26T08:50:26.247Z,18.70
2018-09-26T08:52:57.290Z,18.60
2018-09-26T08:55:31.230Z,18.40
2018-09-26T08:58:02.102Z,18.50
2018-09-26T09:00:33.635Z,19.00
2018-09-26T09:03:05.964Z,19.40
2018-09-26T09:05:36.556Z,19.80
2018-09-26T09:08:06.993Z,19.80
2018-09-26T09:10:40.706Z,20.10
2018-09-26T09:13:13.063Z,19.40
2018-09-26T09:15:44.059Z,19.80
2018-09-26T09:18:15.149Z,20.50
2018-09-26T09:20:46.151Z,21.30
2018-09-26T09:23:17.153Z,21.50
2018-09-26T09:25:48.826Z,21.00
2018-09-26T09:28:19.906Z,20.10
2018-09-26T09:30:51.993Z,19.60
2018-09-26T09:33:23.281Z,19.30
2018-09-26T09:35:54.685Z,19.00
2018-09-26T09:38:25.196Z,19.00
2018-09-26T09:40:56.412Z,19.50
2018-09-26T09:43:27.407Z,20.70
2018-09-26T09:45:57.845Z,22.40
2018-09-26T09:48:29.709Z,23.00
2018-09-26T09:51:01.551Z,23.30
2018-09-26T09:53:32.481Z,24.00
2018-09-26T09:56:03.907Z,24.80
2018-09-26T09:58:36.574Z,24.60
2018-09-26T10:01:12.135Z,24.80
2018-09-26T10:03:42.657Z,25.30
2018-09-26T10:06:14.287Z,24.70
2018-09-26T10:08:45.078Z,24.70
2018-09-26T10:11:15.782Z,23.50
2018-09-26T10:13:46.638Z,22.60
2018-09-26T10:16:17.338Z,22.70
2018-09-26T10:18:48.996Z,23.50
2018-09-26T10:21:19.395Z,23.80
2018-09-26T10:23:50.867Z,23.80
2018-09-26T10:26:21.512Z,24.10
2018-09-26T10:28:54.164Z,24.10
2018-09-26T10:31:26.047Z,24.20
2018-09-26T10:33:56.939Z,24.10
2018-09-26T10:36:27.987Z,22.60
2018-09-26T10:38:59.132Z,22.20
2018-09-26T10:41:32.664Z,21.60
2018-09-26T10:44:04.746Z,21.90
2018-09-26T10:46:35.309Z,22.40
2018-09-26T10:49:05.934Z,21.60
2018-09-26T10:51:36.701Z,21.80
2018-09-26T10:54:30.761Z,22.20
2018-09-26T10:57:01.938Z,22.70
2018-09-26T10:59:33.198Z,23.30
2018-09-26T11:02:19.100Z,24.20
2018-09-26T11:04:49.913Z,24.40
2018-09-26T11:07:21.049Z,24.60
2018-09-26T11:09:52.571Z,23.70
2018-09-26T11:12:23.326Z,23.40
2018-09-26T11:14:54.191Z,23.70
2018-09-26T11:17:25.572Z,24.90
2018-09-26T11:19:56.452Z,25.80
2018-09-26T11:22:28.032Z,26.50
2018-09-26T11:25:01.755Z,26.90
2018-09-26T11:27:34.028Z,26.90
2018-09-26T11:30:04.884Z,26.30
2018-09-26T11:32:36.480Z,26.10
2018-09-26T11:35:07.037Z,25.80
2018-09-26T11:37:38.734Z,26.70
2018-09-26T11:40:09.741Z,27.30
2018-09-26T11:42:40.178Z,26.90
2018-09-26T11:45:11.203Z,26.40
2018-09-26T11:47:41.826Z,25.10
2018-09-26T11:50:12.412Z,24.20
2018-09-26T11:52:43.947Z,24.30
2018-09-26T11:55:14.444Z,24.00
2018-09-26T11:57:45.067Z,23.60
2018-09-26T12:00:15.450Z,23.40
2018-09-26T12:02:45.730Z,24.00
2018-09-26T12:05:16.221Z,24.80
2018-09-26T12:07:46.441Z,25.30
2018-09-26T12:10:17.206Z,24.60
2018-09-26T12:12:48.843Z,24.00
2018-09-26T12:15:19.468Z,23.40
2018-09-26T12:17:50.239Z,22.80
2018-09-26T12:20:21.457Z,22.30
2018-09-26T12:22:51.817Z,22.30
2018-09-26T12:25:22.633Z,22.30
2018-09-26T12:27:54.142Z,22.30
2018-09-26T12:30:27.345Z,22.00
2018-09-26T12:32:58.369Z,21.80
2018-09-26T12:35:29.019Z,22.20
2018-09-26T12:38:01.017Z,22.50
2018-09-26T12:40:32.250Z,22.40
2018-09-26T12:43:03.366Z,23.00
2018-09-26T12:45:35.164Z,22.80
2018-09-26T12:48:06.160Z,22.50
2018-09-26T12:50:37.081Z,22.00
2018-09-26T12:53:07.842Z,21.80
2018-09-26T12:55:39.880Z,21.80
2018-09-26T12:58:10.173Z,22.00
2018-09-26T13:00:40.245Z,22.30
2018-09-26T13:03:11.968Z,22.80
2018-09-26T13:05:43.861Z,23.30
2018-09-26T13:08:16.249Z,23.30
2018-09-26T13:10:49.557Z,23.40
2018-09-26T13:13:20.206Z,22.70
2018-09-26T13:15:50.630Z,21.70
2018-09-26T13:18:21.557Z,21.20
2018-09-26T13:20:55.762Z,20.10
2018-09-26T13:23:27.338Z,19.50
2018-09-26T13:25:57.639Z,19.10
2018-09-26T13:28:30.794Z,19.10
2018-09-26T13:31:01.142Z,18.60
2018-09-26T13:33:32.063Z,18.40
2018-09-26T13:36:03.094Z,18.30
2018-09-26T13:38:33.603Z,18.10
2018-09-26T13:41:04.022Z,18.00
2018-09-26T13:43:34.782Z,18.00
2018-09-26T13:46:05.733Z,17.80
2018-09-26T13:48:36.121Z,17.70
2018-09-26T13:51:07.396Z,18.00
2018-09-26T13:53:38.263Z,18.30
2018-09-26T13:56:09.136Z,18.70
2018-09-26T13:58:40.126Z,18.30
2018-09-26T14:01:11.322Z,18.00
2018-09-26T14:03:42.520Z,18.00
2018-09-26T14:06:13.288Z,18.00
2018-09-26T14:08:44.963Z,18.00
2018-09-26T14:11:15.360Z,18.00
2018-09-26T14:13:46.280Z,17.90
2018-09-26T14:16:17.558Z,17.60
2018-09-26T14:18:48.072Z,17.60
2018-09-26T14:21:19.042Z,17.60
2018-09-26T14:23:50.288Z,17.30
2018-09-26T14:26:21.289Z,17.00
2018-09-26T14:28:52.048Z,16.90
2018-09-26T14:31:22.917Z,16.90
2018-09-26T14:33:54.127Z,16.90
2018-09-26T14:36:25.368Z,16.80
2018-09-26T14:38:56.328Z,16.70
2018-09-26T14:41:27.219Z,16.80
2018-09-26T14:43:58.428Z,16.80
2018-09-26T14:46:28.940Z,17.00
2018-09-26T14:48:59.497Z,17.00
2018-09-26T14:51:30.011Z,17.10
2018-09-26T14:54:01.244Z,16.90
2018-09-26T14:56:32.521Z,16.70
2018-09-26T14:59:03.240Z,16.80
2018-09-26T15:01:34.441Z,16.90
2018-09-26T15:04:05.541Z,16.90
2018-09-26T15:06:36.948Z,16.80
2018-09-26T15:09:08.930Z,16.60
2018-09-26T15:11:39.303Z,16.60
2018-09-26T15:14:10.083Z,16.50
2018-09-26T15:16:41.042Z,16.60
2018-09-26T15:19:11.589Z,16.60
2018-09-26T15:21:43.116Z,16.60
2018-09-26T15:24:14.781Z,16.70
2018-09-26T15:26:45.765Z,16.70
2018-09-26T15:29:16.439Z,16.70
2018-09-26T15:31:47.421Z,16.50
2018-09-26T15:34:18.905Z,16.50
2018-09-26T15:36:50.211Z,16.50
2018-09-26T15:39:21.787Z,16.40
2018-09-26T15:41:53.300Z,16.30
2018-09-26T15:44:26.538Z,16.20
2018-09-26T15:46:59.101Z,16.30
2018-09-26T15:49:31.139Z,16.20
2018-09-26T15:52:02.863Z,16.20
2018-09-26T15:54:34.268Z,16.10
2018-09-26T15:57:06.179Z,16.00
2018-09-26T15:59:36.929Z,16.00
2018-09-26T16:02:08.155Z,16.00
2018-09-26T16:04:39.271Z,16.00
2018-09-26T16:07:10.228Z,16.00
2018-09-26T16:09:41.249Z,15.90
2018-09-26T16:12:11.610Z,15.80
2018-09-26T16:14:43.109Z,15.80
2018-09-26T16:17:14.222Z,15.70
2018-09-26T16:19:46.223Z,15.60
2018-09-26T16:22:18.136Z,15.50
2018-09-26T16:24:49.760Z,15.60
2018-09-26T16:27:21.034Z,15.60
2018-09-26T16:29:53.368Z,15.50
2018-09-26T16:32:25.693Z,15.50
2018-09-26T16:34:58.368Z,15.50
2018-09-26T16:37:30.429Z,15.40
2018-09-26T16:40:02.368Z,15.30
2018-09-26T16:42:34.789Z,15.20
2018-09-26T16:45:10.239Z,15.10
2018-09-26T16:47:46.724Z,15.10
2018-09-26T16:50:24.751Z,15.00
2018-09-26T16:52:56.656Z,15.00
2018-09-26T16:55:29.134Z,15.00
2018-09-26T16:58:01.054Z,14.90
2018-09-26T17:00:33.189Z,15.00
2018-09-26T17:03:05.876Z,14.90
2018-09-26T17:05:37.203Z,14.80
2018-09-26T17:08:08.836Z,14.70
2018-09-26T17:10:40.149Z,14.70
2018-09-26T17:13:12.149Z,14.60
2018-09-26T17:15:48.253Z,14.50
2018-09-26T17:18:20.031Z,14.60
2018-09-26T17:20:58.727Z,14.50
2018-09-26T17:23:31.781Z,14.40
2018-09-26T17:26:03.719Z,14.40
2018-09-26T17:28:35.965Z,14.40
2018-09-26T17:31:08.788Z,14.30
2018-09-26T17:33:46.879Z,14.30
2018-09-26T17:36:19.528Z,14.20
2018-09-26T17:38:51.164Z,14.30
2018-09-26T17:42:35.222Z,14.30
2018-09-26T17:45:08.517Z,14.20
2018-09-26T17:47:40.949Z,14.20
2018-09-26T17:50:12.309Z,14.20
2018-09-26T17:52:43.854Z,14.20
2018-09-26T17:55:15.612Z,14.10
2018-09-26T17:57:47.346Z,14.00
2018-09-26T18:00:19.183Z,14.00
2018-09-26T18:02:51.974Z,14.10
2018-09-26T18:05:23.674Z,14.10
2018-09-26T18:07:55.909Z,14.00
2018-09-26T18:10:28.792Z,14.00
2018-09-26T18:13:00.376Z,14.00
2018-09-26T18:15:32.234Z,13.90
2018-09-26T18:18:04.500Z,13.90
2018-09-26T18:20:35.911Z,13.80
2018-09-26T18:23:07.505Z,13.80
2018-09-26T18:25:38.990Z,13.90
2018-09-26T18:28:10.709Z,13.80
2018-09-26T18:30:42.294Z,13.70
2018-09-26T18:33:13.913Z,13.70
2018-09-26T18:35:46.125Z,13.60
2018-09-26T18:38:18.718Z,13.40
2018-09-26T18:40:51.076Z,13.40
2018-09-26T18:43:23.381Z,13.40
2018-09-26T18:45:56.261Z,13.40
2018-09-26T18:48:27.870Z,13.40
2018-09-26T18:50:59.468Z,13.40
2018-09-26T18:53:31.675Z,13.40
2018-09-26T18:56:02.780Z,13.30
2018-09-26T18:58:33.955Z,13.40
2018-09-26T19:01:07.170Z,13.30
2018-09-26T19:03:39.443Z,13.40
2018-09-26T19:06:12.206Z,13.40
2018-09-26T19:08:44.439Z,13.40
2018-09-26T19:11:15.884Z,13.30
2018-09-26T19:13:47.148Z,13.30
2018-09-26T19:16:19.550Z,13.30
2018-09-26T19:18:51.009Z,13.30
2018-09-26T19:21:22.618Z,13.40
2018-09-26T19:23:53.885Z,13.20
2018-09-26T19:26:25.496Z,13.30
2018-09-26T19:28:57.257Z,13.20
2018-09-26T19:31:29.435Z,13.30
2018-09-26T19:34:01.745Z,13.40
2018-09-26T19:36:33.023Z,13.40
2018-09-26T19:39:05.154Z,13.50
2018-09-26T19:41:37.654Z,13.50
2018-09-26T19:44:08.051Z,13.50
2018-09-26T19:46:39.156Z,13.60
2018-09-26T19:49:10.962Z,13.60
2018-09-26T19:51:43.815Z,13.60
2018-09-26T19:54:14.334Z,13.70
2018-09-26T19:56:46.124Z,13.80
2018-09-26T19:59:17.422Z,13.90
2018-09-26T20:01:51.964Z,13.80
2018-09-26T20:04:23.066Z,13.90
2018-09-26T20:06:54.395Z,13.90
2018-09-26T20:09:25.689Z,14.00
2018-09-26T20:11:56.846Z,14.00
2018-09-26T20:14:27.565Z,14.00
2018-09-26T20:16:59.398Z,14.10
2018-09-26T20:19:29.682Z,14.00
2018-09-26T20:22:01.273Z,14.10
2018-09-26T20:24:32.123Z,14.10
2018-09-26T20:27:04.081Z,14.10
2018-09-26T20:29:40.174Z,14.10
2018-09-26T20:32:13.131Z,14.10
2018-09-26T20:34:45.157Z,14.00
2018-09-26T20:37:15.237Z,14.00
2018-09-26T20:39:48.788Z,14.10
2018-09-26T20:42:34.636Z,14.10
2018-09-26T20:45:07.230Z,14.00
2018-09-26T20:47:39.315Z,14.10
2018-09-26T20:50:12.205Z,14.00
2018-09-26T20:52:43.027Z,14.10
2018-09-26T20:55:14.444Z,14.00
2018-09-26T20:57:45.334Z,14.00
2018-09-26T21:00:16.348Z,13.90
2018-09-26T21:02:48.460Z,13.90
2018-09-26T21:05:19.479Z,13.90
2018-09-26T21:07:50.264Z,13.80
2018-09-26T21:10:21.272Z,13.90
2018-09-26T21:12:52.026Z,13.90
2018-09-26T21:15:23.749Z,13.80
2018-09-26T21:17:54.439Z,13.80
2018-09-26T21:20:25.188Z,13.70
2018-09-26T21:22:55.646Z,13.60
2018-09-26T21:25:26.415Z,13.60
2018-09-26T21:27:56.626Z,13.50
2018-09-26T21:30:27.245Z,13.50
2018-09-26T21:32:57.630Z,13.40
2018-09-26T21:35:29.324Z,13.40
2018-09-26T21:38:00.322Z,13.40
2018-09-26T21:40:31.194Z,13.50
2018-09-26T21:43:02.637Z,13.50
2018-09-26T21:45:32.764Z,13.50
2018-09-26T21:48:02.600Z,13.50
2018-09-26T21:50:32.594Z,13.40
2018-09-26T21:53:03.629Z,13.40
2018-09-26T21:55:33.568Z,13.30
2018-09-26T21:58:03.622Z,13.30
2018-09-26T22:00:33.648Z,13.30
2018-09-26T22:03:03.614Z,13.30
2018-09-26T22:05:33.701Z,13.30
2018-09-26T22:08:03.624Z,13.30
2018-09-26T22:10:34.399Z,13.40
2018-09-26T22:13:04.560Z,13.50
2018-09-26T22:15:34.463Z,13.60
2018-09-26T22:18:04.529Z,13.60
2018-09-26T22:20:34.496Z,13.70
2018-09-26T22:23:04.517Z,13.70
2018-09-26T22:25:34.536Z,13.70
2018-09-26T22:28:04.550Z,13.70
2018-09-26T22:30:34.652Z,13.80
2018-09-26T22:33:04.929Z,13.80
2018-09-26T22:35:35.683Z,13.80
2018-09-26T22:38:06.744Z,13.90
2018-09-26T22:40:37.419Z,14.00
2018-09-26T22:43:08.180Z,14.00
2018-09-26T22:45:39.102Z,14.00
2018-09-26T22:48:09.845Z,14.00
2018-09-26T22:50:40.385Z,14.00
2018-09-26T22:53:10.984Z,13.90
2018-09-26T22:55:41.975Z,14.00
2018-09-26T22:58:12.213Z,14.00
2018-09-26T23:00:43.004Z,14.00
2018-09-26T23:03:13.599Z,14.10
2018-09-26T23:05:45.002Z,14.10
2018-09-26T23:08:15.469Z,14.10
2018-09-26T23:10:46.331Z,14.20
2018-09-26T23:13:16.625Z,14.20
2018-09-26T23:15:47.662Z,14.30
2018-09-26T23:18:18.058Z,14.30
2018-09-26T23:20:49.237Z,14.40
2018-09-26T23:23:19.902Z,14.50
2018-09-26T23:25:50.744Z,14.50
2018-09-26T23:28:21.909Z,14.50
2018-09-26T23:30:52.210Z,14.50
2018-09-26T23:33:22.106Z,14.60
2018-09-26T23:35:52.094Z,14.70
2018-09-26T23:38:22.139Z,14.80
2018-09-26T23:40:52.991Z,14.80
2018-09-26T23:43:23.983Z,14.80
2018-09-26T23:45:55.198Z,14.80
2018-09-26T23:48:26.500Z,14.70
2018-09-26T23:50:57.324Z,14.60
2018-09-26T23:53:27.868Z,14.70
2018-09-26T23:55:59.228Z,14.80
2018-09-26T23:58:30.790Z,14.80
